Airport View

Enter AWOS ICAO identifier for current METAR.

ex. KFNL

KBFI 221753Z VRB06KT 10SM FEW020 22/09 A3004 RMK AO2 SLP173 T02170094 10222 20144 51003

22 Jul 2019 18:37

Phone: 206-763-6904

Other Area AWOS: KRNT - KSEA - KPWT - KTIW

TAF KBFI 221720Z 2218/2318 19007KT P6SM FEW150 FM222100 31007KT P6SM FEW150 FM231000 VRB04KT P6SM BKN025